BBC Delaware — V2CN9 — position and weather

sailwx.info

Track history (hours):
 
Tides and Currents Weather Stations Pressure Air Temp Water Temp Dewpoint Dewpoint Depression Visibility Wind Speed Wind Dir Waves Ship Positions

BBC Delaware

Last reported at 2016-Mar-21 10:30 UTC. Time now 2016-Apr-29 06:08 UTC.
Position N 31°16' E 121°45'.
Warning: this ship's position is 38 days out of date.

Length 138 m; draft 6.1 m.

Type: Cargo ship. MMSI: 305057000.

Date/timePositionNaut miles runAvg speedWind from/ knotsBaromVisibWave heightAir tempDewpointWater temp
2016-Mar-21 10:30N 31°16' E 121°45'1111.7
2016-Mar-21 09:33N 31°23' E 121°35'3 3.2
2016-Mar-21 08:32N 31°21' E 121°33'6 5.8
2016-Mar-21 07:32N 31°15' E 121°31'5 5.5
2016-Mar-21 06:33N 31°10' E 121°28'4 2.1
2016-Mar-21 04:26N 31°06' E 121°28'0 0.0
2016-Mar-21 03:33N 31°06' E 121°28'0 0.0
2016-Mar-21 02:17N 31°06' E 121°28'0 0.1
2016-Mar-21 01:32N 31°06' E 121°28'0 0.1
2016-Mar-21 00:32N 31°06' E 121°28'0 0.0
2016-Mar-20 22:17N 31°06' E 121°28'0 0.0
2016-Mar-20 21:26N 31°06' E 121°28'0 0.0
2016-Mar-20 19:08N 31°06' E 121°28'0 0.0
2016-Mar-20 18:29N 31°06' E 121°28'0 0.0
2016-Mar-20 17:23N 31°06' E 121°28'0 0.0
2016-Mar-20 16:17N 31°06' E 121°28'0 0.0
2016-Mar-20 15:23N 31°06' E 121°28'0 0.0
2016-Mar-20 14:31N 31°06' E 121°28'0 0.0
2016-Mar-20 13:28N 31°06' E 121°28'0 0.0
2016-Mar-20 11:28N 31°06' E 121°28'0 0.0
2016-Mar-20 10:28N 31°06' E 121°28'0 0.0
2016-Mar-20 09:32N 31°06' E 121°28'0 0.0
2016-Mar-20 06:33N 31°06' E 121°28'4 4.1
2016-Mar-20 05:32N 31°10' E 121°28'5 5.1
2016-Mar-20 04:33N 31°15' E 121°30'6 5.7
2016-Mar-20 03:32N 31°20' E 121°33'5 4.6
2016-Mar-20 02:33N 31°24' E 121°31'11 9.3
2016-Mar-20 01:19N 31°18' E 121°43'1214.5
2016-Mar-20 00:28N 31°09' E 121°53'1213.3
2016-Mar-19 23:33N 31°04' E 122°06'1313.1
2016-Mar-19 22:33N 31°02' E 122°21'  
2016-Mar-16 19:33N 24°36' E 119°13'5613.1
2016-Mar-16 15:15N 23°60' E 118°26'26011.4
2016-Mar-15 16:21N 22°07' E 114°10'2011.3
2016-Mar-15 14:33N 22°07' E 113°48'1312.5
2016-Mar-15 13:33N 22°19' E 113°48'2713.5
2016-Mar-15 11:33N 22°45' E 113°39'1111.0
2016-Mar-15 10:33N 22°55' E 113°34'10 9.6
2016-Mar-15 09:33N 23°04' E 113°29'3 2.5
2016-Mar-15 08:20N 23°06' E 113°27'0 0.0
2016-Mar-15 07:26N 23°06' E 113°27'0 0.0
2016-Mar-15 06:32N 23°06' E 113°27'0 0.0
2016-Mar-15 05:32N 23°06' E 113°27'0 0.0
2016-Mar-15 04:32N 23°06' E 113°27'0 0.0
2016-Mar-15 03:14N 23°06' E 113°27'0 0.0
2016-Mar-15 02:31N 23°06' E 113°27'0 0.0
2016-Mar-15 01:31N 23°06' E 113°27'0 0.0
2016-Mar-15 00:27N 23°06' E 113°27'0 0.0
2016-Mar-14 23:33N 23°06' E 113°27'0 0.0
2016-Mar-14 22:27N 23°06' E 113°27'0 0.0
2016-Mar-14 21:15N 23°06' E 113°27'0 0.0
2016-Mar-14 20:33N 23°06' E 113°27'0 0.0
2016-Mar-14 19:33N 23°06' E 113°27'0 0.0
2016-Mar-14 18:27N 23°06' E 113°27'0 0.0
2016-Mar-14 17:33N 23°06' E 113°27'0 0.0
2016-Mar-14 16:27N 23°06' E 113°27'0 0.0
2016-Mar-14 15:33N 23°06' E 113°27'0 0.0
2016-Mar-14 14:27N 23°06' E 113°27'0 0.0
2016-Mar-14 13:33N 23°06' E 113°27'0 0.0
2016-Mar-14 12:21N 23°06' E 113°27'0 0.0
2016-Mar-14 11:33N 23°06' E 113°27'0 0.0
2016-Mar-14 10:33N 23°06' E 113°27'0 0.0
2016-Mar-14 09:33N 23°06' E 113°27'0 0.0
2016-Mar-14 08:33N 23°06' E 113°27'0 0.0
2016-Mar-14 07:33N 23°06' E 113°27'0 0.0
2016-Mar-14 00:31N 23°06' E 113°27'0 0.0
2016-Mar-13 23:25N 23°06' E 113°27'0 0.0
2016-Mar-13 22:31N 23°06' E 113°27'0 0.0
2016-Mar-13 21:19N 23°06' E 113°27'0 0.0
2016-Mar-13 20:31N 23°06' E 113°27'0 0.0
2016-Mar-13 19:25N 23°06' E 113°27'0 0.0
2016-Mar-13 18:25N 23°06' E 113°27'0 0.0
2016-Mar-13 17:31N 23°06' E 113°27'0 0.0
2016-Mar-13 16:25N 23°06' E 113°27'0 0.0
2016-Mar-13 15:31N 23°06' E 113°27'0 0.0
2016-Mar-13 14:31N 23°06' E 113°27'0 0.0
2016-Mar-13 13:31N 23°06' E 113°27'0 0.0
2016-Mar-13 12:31N 23°06' E 113°27'0 0.0
2016-Mar-13 11:19N 23°06' E 113°27'0 0.0
2016-Mar-13 10:31N 23°06' E 113°27'0 0.0
2016-Mar-13 09:25N 23°06' E 113°27'0 0.0
2016-Mar-13 08:13N 23°06' E 113°27'0 0.0
2016-Mar-13 07:25N 23°06' E 113°27'0 0.0
2016-Mar-13 06:31N 23°06' E 113°27'0 0.0
2016-Mar-13 05:31N 23°06' E 113°27'0 0.0
2016-Mar-13 04:31N 23°06' E 113°27'0 0.0
2016-Mar-13 03:19N 23°06' E 113°27'0 0.0
2016-Mar-13 02:31N 23°06' E 113°27'0 0.0
2016-Mar-13 01:31N 23°06' E 113°27'0 0.0
2016-Mar-13 00:31N 23°06' E 113°27'0 0.0
2016-Mar-12 23:13N 23°06' E 113°27'0 0.0
2016-Mar-12 22:31N 23°06' E 113°27'0 0.0
2016-Mar-12 21:31N 23°06' E 113°27'0 0.0
2016-Mar-12 20:31N 23°06' E 113°27'0 0.0
2016-Mar-12 19:31N 23°06' E 113°27'0 0.0
2016-Mar-12 18:31N 23°06' E 113°27'0 0.0
2016-Mar-12 17:25N 23°06' E 113°27'0 0.0
2016-Mar-12 16:25N 23°06' E 113°27'0 0.0
2016-Mar-12 15:25N 23°06' E 113°27'0 0.0
2016-Mar-12 14:31N 23°06' E 113°27'0 0.0
2016-Mar-12 13:31N 23°06' E 113°27'0 0.0
2016-Mar-12 12:31N 23°06' E 113°27'0 0.0
2016-Mar-12 11:25N 23°06' E 113°27'0 0.0
2016-Mar-12 10:25N 23°06' E 113°27'0 0.0
2016-Mar-12 09:31N 23°06' E 113°27'0 0.0
2016-Mar-12 08:31N 23°06' E 113°27'0 0.0
2016-Mar-12 07:31N 23°06' E 113°27'0 0.0
2016-Mar-12 06:31N 23°06' E 113°27'0 0.0
2016-Mar-12 05:31N 23°06' E 113°27'0 0.0
2016-Mar-12 04:31N 23°06' E 113°27'0 0.0
2016-Mar-12 03:31N 23°06' E 113°27'0 0.0
2016-Mar-12 02:30N 23°06' E 113°27'0 0.0
2016-Mar-12 01:30N 23°06' E 113°27'0 0.0
2016-Mar-12 00:30N 23°06' E 113°27'0 0.0
2016-Mar-11 23:25N 23°06' E 113°27'0 0.0
2016-Mar-11 22:25N 23°06' E 113°27'0 0.0
2016-Mar-11 21:30N 23°06' E 113°27'0 0.0
2016-Mar-11 20:31N 23°06' E 113°27'0 0.0
2016-Mar-11 19:24N 23°06' E 113°27'0 0.0
2016-Mar-11 18:31N 23°06' E 113°27'0 0.0
2016-Mar-11 17:31N 23°06' E 113°27'0 0.0
2016-Mar-11 16:31N 23°06' E 113°27'0 0.0
2016-Mar-11 15:31N 23°06' E 113°27'0 0.0
2016-Mar-11 14:25N 23°06' E 113°27'0 0.0
2016-Mar-11 12:31N 23°06' E 113°27'0 0.0
2016-Mar-11 11:31N 23°06' E 113°27'  
Track history (hours):
 
Tides and Currents Weather Stations Pressure Air Temp Water Temp Dewpoint Dewpoint Depression Visibility Wind Speed Wind Dir Waves Ship Positions

BBC Delaware

Last reported at 2016-Mar-21 10:30 UTC. Time now 2016-Apr-29 06:08 UTC.
Position N 31°16' E 121°45'.
Warning: this ship's position is 38 days out of date.

Length 138 m; draft 6.1 m.

Type: Cargo ship. MMSI: 305057000.

Date/timePositionNaut miles runAvg speedWind from/ knotsBaromVisibWave heightAir tempDewpointWater temp
2016-Mar-21 10:30N 31°16' E 121°45'1111.7
2016-Mar-21 09:33N 31°23' E 121°35'3 3.2
2016-Mar-21 08:32N 31°21' E 121°33'6 5.8
2016-Mar-21 07:32N 31°15' E 121°31'5 5.5
2016-Mar-21 06:33N 31°10' E 121°28'4 2.1
2016-Mar-21 04:26N 31°06' E 121°28'0 0.0
2016-Mar-21 03:33N 31°06' E 121°28'0 0.0
2016-Mar-21 02:17N 31°06' E 121°28'0 0.1
2016-Mar-21 01:32N 31°06' E 121°28'0 0.1
2016-Mar-21 00:32N 31°06' E 121°28'0 0.0
2016-Mar-20 22:17N 31°06' E 121°28'0 0.0
2016-Mar-20 21:26N 31°06' E 121°28'0 0.0
2016-Mar-20 19:08N 31°06' E 121°28'0 0.0
2016-Mar-20 18:29N 31°06' E 121°28'0 0.0
2016-Mar-20 17:23N 31°06' E 121°28'0 0.0
2016-Mar-20 16:17N 31°06' E 121°28'0 0.0
2016-Mar-20 15:23N 31°06' E 121°28'0 0.0
2016-Mar-20 14:31N 31°06' E 121°28'0 0.0
2016-Mar-20 13:28N 31°06' E 121°28'0 0.0
2016-Mar-20 11:28N 31°06' E 121°28'0 0.0
2016-Mar-20 10:28N 31°06' E 121°28'0 0.0
2016-Mar-20 09:32N 31°06' E 121°28'0 0.0
2016-Mar-20 06:33N 31°06' E 121°28'4 4.1
2016-Mar-20 05:32N 31°10' E 121°28'5 5.1
2016-Mar-20 04:33N 31°15' E 121°30'6 5.7
2016-Mar-20 03:32N 31°20' E 121°33'5 4.6
2016-Mar-20 02:33N 31°24' E 121°31'11 9.3
2016-Mar-20 01:19N 31°18' E 121°43'1214.5
2016-Mar-20 00:28N 31°09' E 121°53'1213.3
2016-Mar-19 23:33N 31°04' E 122°06'1313.1
2016-Mar-19 22:33N 31°02' E 122°21'  
2016-Mar-16 19:33N 24°36' E 119°13'5613.1
2016-Mar-16 15:15N 23°60' E 118°26'26011.4
2016-Mar-15 16:21N 22°07' E 114°10'2011.3
2016-Mar-15 14:33N 22°07' E 113°48'1312.5
2016-Mar-15 13:33N 22°19' E 113°48'2713.5
2016-Mar-15 11:33N 22°45' E 113°39'1111.0
2016-Mar-15 10:33N 22°55' E 113°34'10 9.6
2016-Mar-15 09:33N 23°04' E 113°29'3 2.5
2016-Mar-15 08:20N 23°06' E 113°27'0 0.0
2016-Mar-15 07:26N 23°06' E 113°27'0 0.0
2016-Mar-15 06:32N 23°06' E 113°27'0 0.0
2016-Mar-15 05:32N 23°06' E 113°27'0 0.0
2016-Mar-15 04:32N 23°06' E 113°27'0 0.0
2016-Mar-15 03:14N 23°06' E 113°27'0 0.0
2016-Mar-15 02:31N 23°06' E 113°27'0 0.0
2016-Mar-15 01:31N 23°06' E 113°27'0 0.0
2016-Mar-15 00:27N 23°06' E 113°27'0 0.0
2016-Mar-14 23:33N 23°06' E 113°27'0 0.0
2016-Mar-14 22:27N 23°06' E 113°27'0 0.0
2016-Mar-14 21:15N 23°06' E 113°27'0 0.0
2016-Mar-14 20:33N 23°06' E 113°27'0 0.0
2016-Mar-14 19:33N 23°06' E 113°27'0 0.0
2016-Mar-14 18:27N 23°06' E 113°27'0 0.0
2016-Mar-14 17:33N 23°06' E 113°27'0 0.0
2016-Mar-14 16:27N 23°06' E 113°27'0 0.0
2016-Mar-14 15:33N 23°06' E 113°27'0 0.0
2016-Mar-14 14:27N 23°06' E 113°27'0 0.0
2016-Mar-14 13:33N 23°06' E 113°27'0 0.0
2016-Mar-14 12:21N 23°06' E 113°27'0 0.0
2016-Mar-14 11:33N 23°06' E 113°27'0 0.0
2016-Mar-14 10:33N 23°06' E 113°27'0 0.0
2016-Mar-14 09:33N 23°06' E 113°27'0 0.0
2016-Mar-14 08:33N 23°06' E 113°27'0 0.0
2016-Mar-14 07:33N 23°06' E 113°27'0 0.0
2016-Mar-14 00:31N 23°06' E 113°27'0 0.0
2016-Mar-13 23:25N 23°06' E 113°27'0 0.0
2016-Mar-13 22:31N 23°06' E 113°27'0 0.0
2016-Mar-13 21:19N 23°06' E 113°27'0 0.0
2016-Mar-13 20:31N 23°06' E 113°27'0 0.0
2016-Mar-13 19:25N 23°06' E 113°27'0 0.0
2016-Mar-13 18:25N 23°06' E 113°27'0 0.0
2016-Mar-13 17:31N 23°06' E 113°27'0 0.0
2016-Mar-13 16:25N 23°06' E 113°27'0 0.0
2016-Mar-13 15:31N 23°06' E 113°27'0 0.0
2016-Mar-13 14:31N 23°06' E 113°27'0 0.0
2016-Mar-13 13:31N 23°06' E 113°27'0 0.0
2016-Mar-13 12:31N 23°06' E 113°27'0 0.0
2016-Mar-13 11:19N 23°06' E 113°27'0 0.0
2016-Mar-13 10:31N 23°06' E 113°27'0 0.0
2016-Mar-13 09:25N 23°06' E 113°27'0 0.0
2016-Mar-13 08:13N 23°06' E 113°27'0 0.0
2016-Mar-13 07:25N 23°06' E 113°27'0 0.0
2016-Mar-13 06:31N 23°06' E 113°27'0 0.0
2016-Mar-13 05:31N 23°06' E 113°27'0 0.0
2016-Mar-13 04:31N 23°06' E 113°27'0 0.0
2016-Mar-13 03:19N 23°06' E 113°27'0 0.0
2016-Mar-13 02:31N 23°06' E 113°27'0 0.0
2016-Mar-13 01:31N 23°06' E 113°27'0 0.0
2016-Mar-13 00:31N 23°06' E 113°27'0 0.0
2016-Mar-12 23:13N 23°06' E 113°27'0 0.0
2016-Mar-12 22:31N 23°06' E 113°27'0 0.0
2016-Mar-12 21:31N 23°06' E 113°27'0 0.0
2016-Mar-12 20:31N 23°06' E 113°27'0 0.0
2016-Mar-12 19:31N 23°06' E 113°27'0 0.0
2016-Mar-12 18:31N 23°06' E 113°27'0 0.0
2016-Mar-12 17:25N 23°06' E 113°27'0 0.0
2016-Mar-12 16:25N 23°06' E 113°27'0 0.0
2016-Mar-12 15:25N 23°06' E 113°27'0 0.0
2016-Mar-12 14:31N 23°06' E 113°27'0 0.0
2016-Mar-12 13:31N 23°06' E 113°27'0 0.0
2016-Mar-12 12:31N 23°06' E 113°27'0 0.0
2016-Mar-12 11:25N 23°06' E 113°27'0 0.0
2016-Mar-12 10:25N 23°06' E 113°27'0 0.0
2016-Mar-12 09:31N 23°06' E 113°27'0 0.0
2016-Mar-12 08:31N 23°06' E 113°27'0 0.0
2016-Mar-12 07:31N 23°06' E 113°27'0 0.0
2016-Mar-12 06:31N 23°06' E 113°27'0 0.0
2016-Mar-12 05:31N 23°06' E 113°27'0 0.0
2016-Mar-12 04:31N 23°06' E 113°27'0 0.0
2016-Mar-12 03:31N 23°06' E 113°27'0 0.0
2016-Mar-12 02:30N 23°06' E 113°27'0 0.0
2016-Mar-12 01:30N 23°06' E 113°27'0 0.0
2016-Mar-12 00:30N 23°06' E 113°27'0 0.0
2016-Mar-11 23:25N 23°06' E 113°27'0 0.0
2016-Mar-11 22:25N 23°06' E 113°27'0 0.0
2016-Mar-11 21:30N 23°06' E 113°27'0 0.0
2016-Mar-11 20:31N 23°06' E 113°27'0 0.0
2016-Mar-11 19:24N 23°06' E 113°27'0 0.0
2016-Mar-11 18:31N 23°06' E 113°27'0 0.0
2016-Mar-11 17:31N 23°06' E 113°27'0 0.0
2016-Mar-11 16:31N 23°06' E 113°27'0 0.0
2016-Mar-11 15:31N 23°06' E 113°27'0 0.0
2016-Mar-11 14:25N 23°06' E 113°27'0 0.0
2016-Mar-11 12:31N 23°06' E 113°27'0 0.0
2016-Mar-11 11:31N 23°06' E 113°27'  

Dump ship's entire track history